Time;durP1;ratioP1;P1;durP2;ratioP2;P2;SDS_P1;SDS_P2;PMS_P1;PMS_P2;Temp;Humidity;BMP_temperature;BMP_pressure;BME280_temperature;BME280_humidity;BME280_pressure;Samples;Min_cycle;Max_cycle;Signal;HPM_P1;HPM_P2
2023/05/28 00:01:18;;;;;;;8.40;5.93;;;17.60;55.20;;;;;;5114710;28;20442;-57
2023/05/28 00:03:44;;;;;;;14.20;6.47;;;17.50;55.20;;;;;;5114652;28;20470;-57
2023/05/28 00:06:11;;;;;;;8.63;5.80;;;17.50;55.20;;;;;;5114623;28;20470;-57
2023/05/28 00:08:38;;;;;;;7.07;6.37;;;17.50;55.70;;;;;;5114601;28;20821;-57
2023/05/28 00:11:05;;;;;;;9.77;5.83;;;17.40;55.80;;;;;;5114272;28;20469;-57
2023/05/28 00:13:32;;;;;;;8.20;5.80;;;17.40;55.90;;;;;;5114532;28;20454;-57
2023/05/28 00:16:00;;;;;;;6.40;5.63;;;17.40;56.10;;;;;;5114468;28;20471;-57
2023/05/28 00:18:28;;;;;;;6.90;5.80;;;17.30;56.30;;;;;;5114448;28;20446;-57
2023/05/28 00:20:55;;;;;;;6.07;5.47;;;17.30;56.30;;;;;;5114690;28;20451;-57
2023/05/28 00:23:22;;;;;;;8.20;6.40;;;17.20;56.20;;;;;;5114384;28;20561;-57
2023/05/28 00:25:49;;;;;;;6.37;5.37;;;17.20;56.60;;;;;;5114223;28;20520;-57
2023/05/28 00:28:15;;;;;;;9.47;6.30;;;17.10;56.30;;;;;;5114569;28;20446;-57
2023/05/28 00:30:42;;;;;;;8.43;5.90;;;17.00;56.40;;;;;;5114290;28;20451;-57
2023/05/28 00:33:10;;;;;;;8.40;5.40;;;17.00;56.90;;;;;;5113925;28;20814;-57
2023/05/28 00:35:37;;;;;;;8.97;6.03;;;17.00;57.20;;;;;;5114158;28;20520;-56
2023/05/28 00:38:04;;;;;;;8.63;6.07;;;16.90;57.30;;;;;;5113848;28;20454;-57
2023/05/28 00:40:31;;;;;;;11.80;7.00;;;16.90;57.40;;;;;;5114107;28;20450;-57
2023/05/28 00:42:57;;;;;;;7.20;5.73;;;16.80;57.50;;;;;;5113942;28;20474;-57
2023/05/28 00:45:24;;;;;;;7.90;6.30;;;16.80;57.60;;;;;;5114001;28;20470;-57
2023/05/28 00:47:51;;;;;;;8.07;5.90;;;16.70;58.00;;;;;;5114060;28;20447;-57
2023/05/28 00:50:20;;;;;;;8.10;5.20;;;16.70;57.90;;;;;;5113949;28;20450;-57
2023/05/28 00:52:48;;;;;;;7.93;6.00;;;16.70;58.10;;;;;;5113896;28;20887;-57
2023/05/28 00:55:15;;;;;;;10.33;7.33;;;16.60;58.30;;;;;;5113838;28;20850;-57
2023/05/28 00:57:43;;;;;;;10.03;6.93;;;16.60;58.60;;;;;;5113923;28;20484;-57
2023/05/28 01:00:11;;;;;;;7.70;6.07;;;16.60;58.80;;;;;;5113612;28;21002;-57
2023/05/28 01:02:38;;;;;;;7.77;6.30;;;16.50;58.80;;;;;;5114000;28;20454;-57
2023/05/28 01:05:05;;;;;;;8.23;6.27;;;16.50;59.10;;;;;;5113737;28;20462;-57
2023/05/28 01:07:33;;;;;;;7.20;5.97;;;16.50;59.20;;;;;;5114584;28;20442;-57
2023/05/28 01:10:01;;;;;;;7.80;5.67;;;16.50;59.40;;;;;;5113823;28;20823;-57
2023/05/28 01:12:27;;;;;;;7.90;6.27;;;16.40;59.60;;;;;;5113685;28;21000;-57
2023/05/28 01:14:55;;;;;;;10.83;5.70;;;16.40;59.60;;;;;;5113586;28;20447;-57
2023/05/28 01:17:22;;;;;;;8.80;6.00;;;16.40;59.90;;;;;;5114944;28;20489;-57
2023/05/28 01:19:49;;;;;;;6.50;5.80;;;16.40;60.30;;;;;;5114241;28;20450;-57
2023/05/28 01:22:20;;;;;;;20.43;6.67;;;16.40;60.80;;;;;;5114841;28;20448;-57
2023/05/28 01:24:51;;;;;;;8.93;6.37;;;16.30;60.50;;;;;;5114410;28;20549;-56
2023/05/28 01:27:18;;;;;;;8.53;6.20;;;16.30;61.00;;;;;;5113720;28;20427;-57
2023/05/28 01:29:45;;;;;;;8.30;6.37;;;16.20;61.50;;;;;;5113517;28;20862;-57
2023/05/28 01:32:11;;;;;;;6.97;5.73;;;16.20;61.70;;;;;;5113508;28;20450;-57
2023/05/28 01:34:38;;;;;;;7.80;6.30;;;16.20;61.80;;;;;;5113582;28;20439;-57
2023/05/28 01:37:09;;;;;;;9.73;6.40;;;16.20;62.00;;;;;;5113524;28;20471;-57
2023/05/28 01:39:41;;;;;;;6.93;5.80;;;16.20;62.10;;;;;;5113614;28;20434;-57
2023/05/28 01:42:10;;;;;;;8.20;6.37;;;16.20;62.20;;;;;;5113689;28;20786;-57
2023/05/28 01:44:37;;;;;;;7.70;5.50;;;16.20;62.30;;;;;;5113322;28;20482;-57
2023/05/28 01:47:05;;;;;;;6.20;5.00;;;16.10;61.70;;;;;;5113670;28;20466;-57
2023/05/28 01:49:33;;;;;;;7.60;6.10;;;16.00;61.60;;;;;;5115825;28;20442;-57
2023/05/28 01:51:59;;;;;;;10.33;5.23;;;15.90;61.90;;;;;;5117285;28;20449;-57
2023/05/28 01:54:26;;;;;;;8.03;5.67;;;15.80;61.60;;;;;;5117304;28;20446;-57
2023/05/28 01:56:53;;;;;;;8.50;6.17;;;15.70;61.90;;;;;;5116902;28;20980;-56
2023/05/28 01:59:21;;;;;;;6.23;5.20;;;15.70;62.00;;;;;;5116903;28;20944;-57
2023/05/28 02:01:47;;;;;;;6.60;5.40;;;15.60;62.40;;;;;;5117232;28;20480;-57
2023/05/28 02:04:14;;;;;;;8.07;6.07;;;15.50;62.50;;;;;;5117007;28;20481;-57
2023/05/28 02:06:45;;;;;;;8.53;6.10;;;15.50;62.70;;;;;;5117023;28;20474;-57
2023/05/28 02:09:12;;;;;;;6.43;5.83;;;15.50;63.50;;;;;;5116914;28;20423;-56
2023/05/28 02:11:39;;;;;;;8.80;5.90;;;15.50;63.60;;;;;;5116599;28;20504;-57
2023/05/28 02:14:05;;;;;;;9.20;5.30;;;15.50;64.00;;;;;;5116947;28;20443;-57
2023/05/28 02:16:35;;;;;;;8.73;5.77;;;15.40;63.80;;;;;;5116864;28;20477;-57
2023/05/28 02:19:03;;;;;;;8.87;5.90;;;15.40;64.00;;;;;;5116859;28;20473;-57
2023/05/28 02:21:30;;;;;;;6.83;5.30;;;15.30;64.90;;;;;;5116454;28;20976;-57
2023/05/28 02:23:57;;;;;;;7.33;5.77;;;15.30;64.60;;;;;;5116637;28;20482;-57
2023/05/28 02:26:25;;;;;;;7.30;6.13;;;15.30;64.60;;;;;;5116693;28;20470;-57
2023/05/28 02:28:51;;;;;;;8.17;6.27;;;15.30;64.80;;;;;;5116276;28;20940;-57
2023/05/28 02:31:18;;;;;;;9.60;6.57;;;15.30;64.80;;;;;;5116530;28;20516;-57
2023/05/28 02:33:46;;;;;;;7.67;5.70;;;15.30;65.30;;;;;;5116604;28;20458;-57
2023/05/28 02:36:13;;;;;;;8.07;5.87;;;15.20;65.00;;;;;;5116494;27;20475;-57
2023/05/28 02:38:40;;;;;;;6.37;5.60;;;15.20;65.50;;;;;;5116439;28;20447;-57
2023/05/28 02:41:07;;;;;;;8.50;6.03;;;15.10;65.60;;;;;;5116362;28;20821;-56
2023/05/28 02:43:34;;;;;;;7.93;6.67;;;15.10;65.80;;;;;;5116291;28;20486;-56
2023/05/28 02:46:01;;;;;;;11.87;6.47;;;15.10;66.10;;;;;;5116265;28;20478;-56
2023/05/28 02:48:28;;;;;;;6.63;5.97;;;15.10;66.40;;;;;;5116280;28;20447;-57
2023/05/28 02:50:56;;;;;;;6.63;5.90;;;15.10;66.60;;;;;;5116272;28;20845;-56
2023/05/28 02:53:23;;;;;;;7.63;6.03;;;15.10;66.50;;;;;;5116191;28;20500;-56
2023/05/28 02:55:50;;;;;;;7.63;6.07;;;15.10;66.40;;;;;;5115788;28;21029;-56
2023/05/28 02:58:18;;;;;;;7.93;5.50;;;15.00;66.50;;;;;;5116160;28;20451;-56
2023/05/28 03:00:45;;;;;;;7.70;6.53;;;15.00;67.10;;;;;;5115876;28;20446;-56
2023/05/28 03:03:12;;;;;;;11.87;6.70;;;15.00;67.30;;;;;;5115915;28;20450;-56
2023/05/28 03:05:38;;;;;;;6.07;5.47;;;14.90;67.60;;;;;;5115970;28;20466;-56
2023/05/28 03:08:06;;;;;;;7.63;5.53;;;14.90;67.50;;;;;;5116044;28;20811;-56
2023/05/28 03:10:33;;;;;;;7.23;6.33;;;14.80;67.10;;;;;;5115591;28;20509;-56
2023/05/28 03:13:00;;;;;;;7.10;4.80;;;14.70;66.90;;;;;;5116150;28;20419;-57
2023/05/28 03:15:27;;;;;;;10.77;6.13;;;14.70;66.90;;;;;;5116954;28;20467;-56
2023/05/28 03:17:54;;;;;;;10.17;6.33;;;14.70;67.00;;;;;;5116858;28;20515;-56
2023/05/28 03:20:21;;;;;;;9.57;5.23;;;14.60;67.10;;;;;;5116003;28;20443;-56
2023/05/28 03:22:49;;;;;;;8.67;5.80;;;14.60;67.50;;;;;;5115552;28;20443;-56
2023/05/28 03:25:17;;;;;;;7.27;5.90;;;14.60;67.60;;;;;;5115329;28;20486;-56
2023/05/28 03:27:44;;;;;;;6.77;5.70;;;14.50;67.60;;;;;;5115710;28;20837;-56
2023/05/28 03:30:11;;;;;;;10.20;6.70;;;14.50;68.10;;;;;;5115415;28;20462;-56
2023/05/28 03:32:38;;;;;;;7.83;5.90;;;14.50;68.10;;;;;;5115452;28;20443;-56
2023/05/28 03:35:06;;;;;;;9.83;6.93;;;14.50;68.20;;;;;;5115248;28;20447;-56
2023/05/28 03:37:32;;;;;;;6.67;5.80;;;14.40;68.10;;;;;;5115328;28;20468;-56
2023/05/28 03:39:59;;;;;;;8.40;6.27;;;14.40;68.60;;;;;;5115525;28;20450;-56
2023/05/28 03:42:27;;;;;;;9.53;5.77;;;14.40;68.70;;;;;;5115218;28;20818;-56
2023/05/28 03:44:54;;;;;;;9.47;6.30;;;14.40;68.60;;;;;;5114987;28;20478;-56
2023/05/28 03:47:21;;;;;;;7.90;7.10;;;14.30;68.60;;;;;;5115086;28;20517;-56
2023/05/28 03:49:48;;;;;;;7.80;7.00;;;14.30;68.80;;;;;;5115178;28;20447;-56
2023/05/28 03:52:15;;;;;;;8.60;6.10;;;14.30;68.90;;;;;;5114792;28;20470;-56
2023/05/28 03:54:42;;;;;;;9.80;6.53;;;14.30;69.30;;;;;;5114966;28;20446;-56
2023/05/28 03:57:09;;;;;;;11.83;7.07;;;14.30;69.50;;;;;;5114435;28;20815;-56
2023/05/28 03:59:38;;;;;;;10.27;7.00;;;14.30;70.70;;;;;;5114843;28;20822;-56
2023/05/28 04:02:05;;;;;;;11.80;7.43;;;14.40;71.00;;;;;;5114478;28;20450;-56
2023/05/28 04:04:31;;;;;;;14.33;6.17;;;14.40;70.60;;;;;;5114452;28;20478;-56
2023/05/28 04:06:58;;;;;;;9.83;6.47;;;14.30;70.10;;;;;;5114621;28;20467;-56
2023/05/28 04:09:26;;;;;;;7.63;6.80;;;14.30;70.30;;;;;;5114654;28;20458;-56
2023/05/28 04:11:53;;;;;;;10.87;7.30;;;14.40;70.90;;;;;;5113749;28;20527;-56
2023/05/28 04:14:20;;;;;;;13.13;6.93;;;14.40;71.70;;;;;;5114583;28;20442;-57
2023/05/28 04:16:49;;;;;;;12.87;7.67;;;14.40;72.40;;;;;;5114483;28;21026;-56
2023/05/28 04:19:16;;;;;;;9.00;7.63;;;14.40;72.70;;;;;;5114598;28;20438;-57
2023/05/28 04:21:42;;;;;;;8.93;8.03;;;14.40;73.20;;;;;;5114584;28;20451;-57
2023/05/28 04:24:09;;;;;;;10.87;6.83;;;14.50;73.90;;;;;;5114389;28;20482;-57
2023/05/28 04:26:36;;;;;;;10.87;6.80;;;14.50;74.00;;;;;;5114586;28;20470;-56
2023/05/28 04:29:02;;;;;;;8.60;6.40;;;14.60;74.50;;;;;;5114581;28;20453;-57
2023/05/28 04:31:29;;;;;;;8.37;6.60;;;14.60;74.70;;;;;;5114924;28;20454;-56
2023/05/28 04:33:57;;;;;;;9.50;6.80;;;14.50;73.70;;;;;;5114681;28;20450;-57
2023/05/28 04:36:29;;;;;;;7.40;5.63;;;14.40;73.30;;;;;;5114511;28;20469;-57
2023/05/28 04:38:56;;;;;;;7.10;5.63;;;14.40;73.00;;;;;;5114331;28;20431;-57
2023/05/28 04:41:24;;;;;;;9.27;7.20;;;14.40;73.10;;;;;;5114246;28;20454;-56
2023/05/28 04:43:50;;;;;;;9.53;5.93;;;14.40;73.30;;;;;;5114032;28;20447;-56
2023/05/28 04:46:18;;;;;;;10.00;6.67;;;14.40;73.50;;;;;;5114116;28;20463;-56
2023/05/28 04:48:45;;;;;;;9.93;7.07;;;14.40;73.80;;;;;;5114043;28;20973;-56
2023/05/28 04:51:13;;;;;;;9.60;6.90;;;14.40;74.00;;;;;;5113828;28;20944;-56
2023/05/28 04:53:40;;;;;;;6.90;6.20;;;14.40;74.20;;;;;;5114107;28;20447;-56
2023/05/28 04:56:07;;;;;;;8.60;7.10;;;14.40;74.90;;;;;;5114026;28;20524;-57
2023/05/28 04:58:34;;;;;;;7.03;6.33;;;14.40;75.40;;;;;;5113918;28;20451;-57
2023/05/28 05:01:00;;;;;;;8.97;6.67;;;14.40;75.70;;;;;;5114001;28;20856;-57
2023/05/28 05:03:27;;;;;;;9.70;7.50;;;14.40;76.30;;;;;;5113862;28;20454;-57
2023/05/28 05:05:54;;;;;;;15.20;8.03;;;14.50;76.90;;;;;;5113635;28;20488;-57
2023/05/28 05:08:22;;;;;;;7.63;6.77;;;14.60;77.50;;;;;;5113719;28;20451;-57
2023/05/28 05:10:48;;;;;;;7.20;6.17;;;14.60;78.00;;;;;;5113619;28;20512;-57
2023/05/28 05:13:15;;;;;;;13.60;8.20;;;14.70;78.60;;;;;;5113813;28;20454;-57
2023/05/28 05:15:42;;;;;;;11.30;7.10;;;14.80;79.80;;;;;;5113637;28;20454;-56
2023/05/28 05:18:08;;;;;;;9.43;7.20;;;14.80;79.80;;;;;;5113786;28;20504;-57
2023/05/28 05:20:35;;;;;;;9.90;6.93;;;14.90;80.60;;;;;;5113658;28;20447;-57
2023/05/28 05:23:03;;;;;;;9.00;7.37;;;15.00;80.80;;;;;;5113640;28;20442;-57
2023/05/28 05:25:31;;;;;;;8.93;7.00;;;15.10;81.30;;;;;;5117727;28;20486;-57
2023/05/28 05:27:57;;;;;;;10.53;7.43;;;15.20;81.70;;;;;;5117778;28;20442;-57
2023/05/28 05:30:24;;;;;;;10.50;6.90;;;15.30;81.90;;;;;;5117716;28;20443;-57
2023/05/28 05:32:51;;;;;;;6.77;5.93;;;15.40;81.80;;;;;;5117412;28;20811;-57
2023/05/28 05:35:19;;;;;;;10.97;7.60;;;15.50;82.10;;;;;;5117557;28;20481;-57
2023/05/28 05:37:46;;;;;;;8.53;7.73;;;15.60;82.10;;;;;;5117357;28;20994;-57
2023/05/28 05:40:13;;;;;;;9.40;6.87;;;15.70;82.10;;;;;;5117666;28;20447;-57
2023/05/28 05:42:41;;;;;;;12.70;8.10;;;15.80;81.90;;;;;;5117502;28;20487;-56
2023/05/28 05:45:09;;;;;;;12.13;7.30;;;15.80;81.50;;;;;;5117375;28;20498;-57
2023/05/28 05:47:37;;;;;;;14.50;6.80;;;16.00;81.20;;;;;;5117454;28;20478;-57
2023/05/28 05:50:05;;;;;;;10.73;7.20;;;16.10;81.50;;;;;;5117396;28;20534;-57
2023/05/28 05:52:31;;;;;;;13.13;9.07;;;16.20;80.80;;;;;;5117617;28;20443;-57
2023/05/28 05:54:58;;;;;;;9.30;7.30;;;16.30;81.00;;;;;;5117161;28;20866;-57
2023/05/28 05:57:26;;;;;;;9.13;7.27;;;16.40;81.20;;;;;;5117355;28;20454;-57
2023/05/28 05:59:54;;;;;;;15.77;7.63;;;16.50;80.40;;;;;;5117219;28;20446;-57
2023/05/28 06:02:21;;;;;;;10.33;6.87;;;16.60;79.70;;;;;;5117156;28;20493;-57
2023/05/28 06:04:48;;;;;;;13.47;8.20;;;16.70;79.40;;;;;;5117135;28;20470;-57
2023/05/28 06:07:14;;;;;;;11.20;8.40;;;16.80;79.30;;;;;;5116730;28;20940;-57
2023/05/28 06:09:41;;;;;;;10.33;7.80;;;16.90;79.00;;;;;;5117003;28;20866;-57
2023/05/28 06:12:08;;;;;;;15.53;9.07;;;17.00;78.40;;;;;;5116550;28;20462;-57
2023/05/28 06:14:35;;;;;;;12.30;7.13;;;17.10;77.70;;;;;;5116552;28;20442;-57
2023/05/28 06:17:03;;;;;;;8.40;6.50;;;17.20;77.50;;;;;;5116747;28;20562;-57
2023/05/28 06:19:30;;;;;;;8.20;6.90;;;17.30;77.70;;;;;;5116814;28;20454;-57
2023/05/28 06:21:57;;;;;;;9.57;8.03;;;17.40;77.00;;;;;;5116458;28;20515;-57
2023/05/28 06:24:24;;;;;;;11.20;6.90;;;17.50;76.30;;;;;;5116633;28;20500;-57
2023/05/28 06:26:51;;;;;;;9.43;7.33;;;17.70;75.50;;;;;;5116613;28;20470;-57
2023/05/28 06:29:18;;;;;;;7.70;6.43;;;17.80;75.90;;;;;;5116648;28;20533;-57
2023/05/28 06:31:45;;;;;;;9.40;6.70;;;17.90;74.10;;;;;;5116623;28;20443;-57
2023/05/28 06:34:13;;;;;;;8.07;6.07;;;18.10;74.00;;;;;;5115939;28;20486;-56
2023/05/28 06:36:41;;;;;;;8.43;6.60;;;18.30;69.80;;;;;;5116697;28;20477;-57
2023/05/28 06:39:08;;;;;;;12.87;7.23;;;18.50;70.40;;;;;;5116168;28;20948;-57
2023/05/28 06:41:35;;;;;;;10.77;5.70;;;18.60;70.20;;;;;;5116456;28;20511;-57
2023/05/28 06:44:02;;;;;;;6.93;5.27;;;18.80;69.10;;;;;;5116420;28;20451;-57
2023/05/28 06:46:29;;;;;;;7.67;5.60;;;19.00;68.20;;;;;;5116167;28;20490;-57
2023/05/28 06:48:55;;;;;;;6.70;4.57;;;19.20;66.50;;;;;;5116384;27;20475;-57
2023/05/28 06:51:23;;;;;;;10.10;4.60;;;19.40;65.60;;;;;;5115869;28;20451;-57
2023/05/28 06:53:50;;;;;;;5.67;4.40;;;19.60;64.50;;;;;;5116214;28;20451;-57
2023/05/28 06:56:17;;;;;;;8.93;5.30;;;19.80;63.70;;;;;;5115775;28;21047;-57
2023/05/28 06:58:43;;;;;;;9.60;5.17;;;20.10;62.20;;;;;;5116075;28;20446;-57
2023/05/28 07:01:10;;;;;;;7.23;4.80;;;20.30;60.90;;;;;;5115970;28;20447;-57
2023/05/28 07:03:37;;;;;;;8.93;5.17;;;20.60;61.10;;;;;;5115955;28;20439;-57
2023/05/28 07:06:05;;;;;;;7.20;5.20;;;20.70;60.00;;;;;;5115727;28;20483;-57
2023/05/28 07:08:33;;;;;;;8.13;5.30;;;20.90;59.50;;;;;;5115522;28;20874;-57
2023/05/28 07:11:00;;;;;;;6.47;4.40;;;21.10;58.90;;;;;;5115526;28;20455;-57
2023/05/28 07:13:27;;;;;;;7.20;5.03;;;21.20;58.00;;;;;;5115735;28;20972;-57
2023/05/28 07:15:53;;;;;;;6.00;4.47;;;21.40;56.80;;;;;;5115458;28;20835;-57
2023/05/28 07:18:22;;;;;;;6.90;4.37;;;21.50;56.00;;;;;;5115825;28;20531;-57
2023/05/28 07:20:49;;;;;;;8.33;4.60;;;21.80;55.60;;;;;;5115723;28;20453;-57
2023/05/28 07:23:15;;;;;;;4.93;4.27;;;22.00;55.10;;;;;;5117787;28;20451;-57
2023/05/28 07:25:44;;;;;;;6.67;4.77;;;22.20;54.80;;;;;;5115881;28;20490;-57
2023/05/28 07:28:11;;;;;;;5.00;4.17;;;22.40;53.70;;;;;;5116002;28;20443;-57
2023/05/28 07:30:37;;;;;;;4.77;3.80;;;22.70;52.80;;;;;;5115762;28;20445;-57
2023/05/28 07:33:04;;;;;;;5.77;4.00;;;22.90;52.20;;;;;;5115817;28;20447;-58
2023/05/28 07:35:31;;;;;;;6.17;4.50;;;23.10;51.60;;;;;;5113655;28;20549;-57
2023/05/28 07:37:58;;;;;;;6.87;4.17;;;23.40;50.60;;;;;;5115696;28;20517;-57
2023/05/28 07:40:24;;;;;;;6.40;4.50;;;23.60;49.90;;;;;;5115550;28;20458;-57
2023/05/28 07:42:52;;;;;;;11.77;4.43;;;23.80;49.10;;;;;;5115543;28;20442;-56
2023/05/28 07:45:19;;;;;;;14.70;4.80;;;24.10;48.50;;;;;;5115253;28;20857;-56
2023/05/28 07:47:46;;;;;;;7.70;4.77;;;24.20;47.60;;;;;;5114245;28;20486;-56
2023/05/28 07:50:12;;;;;;;9.00;4.60;;;24.30;47.30;;;;;;5115071;28;20878;-56
2023/05/28 07:52:40;;;;;;;7.20;4.00;;;24.50;47.40;;;;;;5115244;28;20443;-56
2023/05/28 07:55:08;;;;;;;4.60;3.53;;;24.60;47.60;;;;;;5115518;28;20463;-56
2023/05/28 07:57:34;;;;;;;5.77;4.37;;;24.70;47.60;;;;;;5116368;28;20450;-56
2023/05/28 08:00:06;;;;;;;4.87;3.70;;;24.90;47.70;;;;;;5115082;28;20816;-56
2023/05/28 08:02:33;;;;;;;5.50;4.03;;;25.10;47.80;;;;;;5116209;28;20459;-56
2023/05/28 08:05:01;;;;;;;5.57;4.13;;;25.20;47.10;;;;;;5115121;28;20494;-57
2023/05/28 08:07:28;;;;;;;7.03;4.20;;;25.30;46.80;;;;;;5115125;28;20533;-57
2023/05/28 08:09:55;;;;;;;6.10;4.23;;;25.50;46.60;;;;;;5115068;28;20471;-57
2023/05/28 08:12:22;;;;;;;8.27;4.23;;;25.70;46.50;;;;;;5114471;28;20450;-57
2023/05/28 08:14:48;;;;;;;7.60;4.20;;;25.80;46.20;;;;;;5115434;28;20481;-57
2023/05/28 08:17:16;;;;;;;8.93;4.80;;;26.00;46.00;;;;;;5114578;28;20443;-57
2023/05/28 08:19:43;;;;;;;6.13;4.10;;;26.00;46.00;;;;;;5114484;28;20449;-57
2023/05/28 08:22:10;;;;;;;5.80;4.20;;;26.20;46.00;;;;;;5114424;28;20450;-57
2023/05/28 08:24:37;;;;;;;9.27;4.07;;;26.30;45.20;;;;;;5115151;28;20860;-57
2023/05/28 08:27:04;;;;;;;7.03;4.30;;;26.40;44.20;;;;;;5114528;28;20518;-57
2023/05/28 08:29:30;;;;;;;5.87;3.97;;;26.50;43.90;;;;;;5114273;28;20457;-57
2023/05/28 08:31:58;;;;;;;5.60;4.17;;;26.60;43.70;;;;;;5114393;28;20454;-57
2023/05/28 08:34:27;;;;;;;8.43;3.87;;;26.80;43.50;;;;;;5114313;28;20508;-57
2023/05/28 08:36:54;;;;;;;5.70;4.17;;;26.80;43.00;;;;;;5114226;28;20459;-57
2023/05/28 08:39:20;;;;;;;6.37;4.07;;;26.90;42.60;;;;;;5114430;28;20450;-57
2023/05/28 08:41:47;;;;;;;5.80;4.67;;;27.00;42.60;;;;;;5114050;28;20450;-57
2023/05/28 08:44:14;;;;;;;5.43;3.43;;;27.20;42.50;;;;;;5114306;28;20450;-57
2023/05/28 08:46:42;;;;;;;4.80;4.13;;;27.30;41.50;;;;;;5113910;28;20890;-57
2023/05/28 08:49:11;;;;;;;5.47;4.20;;;27.50;41.40;;;;;;5114001;28;20796;-57
2023/05/28 08:51:42;;;;;;;6.03;4.50;;;27.60;41.00;;;;;;5113702;28;20957;-57
2023/05/28 08:54:09;;;;;;;7.57;4.47;;;27.80;40.80;;;;;;5113937;28;20427;-57
2023/05/28 08:56:36;;;;;;;9.47;4.70;;;28.00;40.60;;;;;;5113879;28;20459;-57
2023/05/28 08:59:04;;;;;;;5.80;3.80;;;28.20;40.20;;;;;;5113594;28;20516;-57
2023/05/28 09:01:31;;;;;;;6.30;4.60;;;28.40;40.40;;;;;;5113819;28;20524;-55
2023/05/28 09:03:58;;;;;;;6.70;3.93;;;28.60;39.60;;;;;;5113937;28;20797;-55
2023/05/28 09:06:25;;;;;;;5.03;3.73;;;28.70;38.90;;;;;;5113587;28;20487;-55
2023/05/28 09:08:54;;;;;;;5.67;4.00;;;28.80;38.00;;;;;;5113891;28;20462;-57
2023/05/28 09:11:21;;;;;;;6.87;4.13;;;28.90;38.10;;;;;;5113492;28;20455;-57
2023/05/28 09:13:49;;;;;;;6.77;4.53;;;29.20;38.00;;;;;;5113819;28;20443;-57
2023/05/28 09:16:24;;;;;;;5.20;3.90;;;29.30;36.70;;;;;;5113413;28;20459;-57
2023/05/28 09:18:51;;;;;;;11.53;3.93;;;29.40;36.60;;;;;;5113833;28;20431;-57
2023/05/28 09:21:20;;;;;;;6.93;3.93;;;29.60;36.70;;;;;;5113298;28;20797;-57
2023/05/28 09:23:52;;;;;;;5.20;3.80;;;29.90;36.40;;;;;;5114217;28;20548;-57
2023/05/28 09:26:20;;;;;;;7.57;4.40;;;30.00;36.30;;;;;;5113474;28;20485;-57
2023/05/28 09:28:47;;;;;;;6.97;4.30;;;30.20;35.50;;;;;;5113373;28;20454;-57
2023/05/28 09:31:14;;;;;;;7.10;4.10;;;30.50;35.60;;;;;;5113531;28;20442;-57
2023/05/28 09:33:43;;;;;;;6.93;4.50;;;30.60;35.50;;;;;;5113557;28;20450;-57
2023/05/28 09:36:11;;;;;;;5.93;4.40;;;30.90;34.50;;;;;;5113547;28;20494;-57
2023/05/28 09:38:41;;;;;;;6.43;4.10;;;31.10;34.10;;;;;;5113547;28;20454;-57
2023/05/28 09:41:20;;;;;;;7.70;4.30;;;31.40;33.80;;;;;;5113578;28;20446;-57
2023/05/28 09:43:47;;;;;;;5.40;4.23;;;31.60;33.70;;;;;;5113347;28;20426;-57
2023/05/28 09:46:13;;;;;;;4.70;4.23;;;31.90;32.80;;;;;;5113320;28;20489;-56
2023/05/28 09:48:41;;;;;;;7.13;4.47;;;32.00;32.00;;;;;;5113409;28;20446;-56
2023/05/28 09:51:13;;;;;;;7.90;4.93;;;32.30;32.00;;;;;;5113392;28;20445;-56
2023/05/28 09:53:45;;;;;;;8.70;5.30;;;32.50;31.20;;;;;;5113440;28;20434;-57
2023/05/28 09:56:14;;;;;;;7.73;4.90;;;32.70;31.10;;;;;;5113275;28;20462;-56
2023/05/28 09:58:46;;;;;;;7.00;4.87;;;32.90;29.80;;;;;;5113355;28;20837;-57
2023/05/28 10:01:17;;;;;;;6.70;4.90;;;33.20;29.70;;;;;;5113443;28;20433;-57
2023/05/28 10:03:46;;;;;;;7.00;4.63;;;33.40;29.60;;;;;;5113258;28;20449;-56
2023/05/28 10:06:17;;;;;;;9.20;4.90;;;33.70;30.00;;;;;;5113189;28;20478;-56
2023/05/28 10:08:46;;;;;;;7.70;5.10;;;34.10;29.80;;;;;;5112960;28;20426;-57
2023/05/28 10:11:17;;;;;;;7.07;4.43;;;34.30;29.60;;;;;;5116075;28;20454;-57
2023/05/28 10:13:46;;;;;;;6.90;4.70;;;34.60;28.50;;;;;;5116838;28;20520;-57
2023/05/28 10:16:13;;;;;;;6.50;4.67;;;34.80;27.30;;;;;;5116855;28;20463;-57
2023/05/28 10:18:42;;;;;;;7.30;4.43;;;35.10;26.90;;;;;;5116929;28;20442;-57
2023/05/28 10:21:11;;;;;;;5.90;3.90;;;35.40;27.30;;;;;;5116596;28;20958;-57
2023/05/28 10:23:38;;;;;;;7.03;5.10;;;35.70;27.00;;;;;;5116840;28;20958;-56
2023/05/28 10:26:05;;;;;;;6.90;4.63;;;36.10;26.40;;;;;;5116890;28;20513;-57
2023/05/28 10:28:32;;;;;;;6.00;4.40;;;36.40;25.60;;;;;;5117002;28;20208;-57
2023/05/28 10:31:05;;;;;;;5.73;4.43;;;36.80;25.30;;;;;;5117385;28;20265;-56
2023/05/28 10:33:37;;;;;;;7.07;4.88;;;37.10;24.80;;;;;;5117131;28;20189;-57
2023/05/28 10:36:09;;;;;;;8.38;4.63;;;37.40;24.20;;;;;;5116941;28;20216;-56
2023/05/28 10:38:43;;;;;;;4.43;3.85;;;37.80;24.00;;;;;;5116980;28;20224;-57
2023/05/28 10:41:10;;;;;;;5.90;4.55;;;38.20;23.00;;;;;;5117089;28;20188;-57
2023/05/28 10:43:45;;;;;;;5.25;4.20;;;38.60;22.50;;;;;;5116937;28;20225;-57
2023/05/28 10:46:17;;;;;;;6.95;4.80;;;39.10;22.20;;;;;;5116563;28;20234;-57
2023/05/28 10:49:05;;;;;;;6.30;4.50;;;39.60;22.20;;;;;;5116458;28;20204;-57
2023/05/28 10:51:47;;;;;;;7.55;4.18;;;40.10;21.70;;;;;;5116455;28;20185;-57
2023/05/28 10:54:16;;;;;;;20.38;5.55;;;40.60;20.50;;;;;;5116301;28;20200;-57
2023/05/28 10:57:15;;;;;;;13.77;4.75;;;41.10;20.90;;;;;;5116630;28;20312;-57
2023/05/28 10:59:47;;;;;;;7.97;4.20;;;41.60;20.20;;;;;;5116615;28;20232;-57
2023/05/28 11:02:18;;;;;;;13.15;4.35;;;42.10;19.60;;;;;;5116124;28;20216;-57
2023/05/28 11:04:45;;;;;;;7.10;3.72;;;42.40;19.50;;;;;;5116435;28;20212;-56
2023/05/28 11:07:13;;;;;;;6.43;4.30;;;42.80;19.60;;;;;;5116097;28;20250;-56
2023/05/28 11:09:40;;;;;;;6.82;4.20;;;43.10;18.00;;;;;;5115977;28;20212;-56
2023/05/28 11:12:08;;;;;;;6.40;3.90;;;43.30;17.60;;;;;;5115370;28;20579;-56
2023/05/28 11:14:36;;;;;;;4.68;4.03;;;43.50;18.00;;;;;;5115913;28;20196;-57
2023/05/28 11:17:07;;;;;;;14.02;5.13;;;43.90;17.60;;;;;;5115579;28;20740;-56
2023/05/28 11:19:41;;;;;;;9.45;3.95;;;44.20;17.50;;;;;;5116201;28;20185;-56
2023/05/28 11:22:08;;;;;;;25.05;5.43;;;44.50;16.60;;;;;;5116066;28;20222;-56
2023/05/28 11:24:58;;;;;;;6.22;4.35;;;44.60;16.10;;;;;;5115435;28;20200;-56
2023/05/28 11:27:25;;;;;;;4.57;4.00;;;44.80;16.30;;;;;;5115878;28;20240;-56
2023/05/28 11:29:54;;;;;;;5.47;3.65;;;45.10;16.40;;;;;;5115515;28;20208;-56
2023/05/28 11:32:21;;;;;;;6.05;3.67;;;45.30;16.10;;;;;;5115630;28;20211;-56
2023/05/28 11:34:51;;;;;;;5.18;3.80;;;45.40;15.90;;;;;;5115544;28;20629;-57
2023/05/28 11:37:25;;;;;;;5.35;3.88;;;45.60;16.20;;;;;;5115659;28;20201;-57
2023/05/28 11:39:53;;;;;;;5.70;3.72;;;45.80;15.80;;;;;;5115818;28;20238;-57
2023/05/28 11:42:21;;;;;;;7.72;4.00;;;45.90;15.70;;;;;;5115129;28;20693;-57
2023/05/28 11:44:49;;;;;;;5.22;3.92;;;46.20;15.60;;;;;;5115278;28;20204;-57
2023/05/28 11:47:16;;;;;;;5.05;3.72;;;46.10;15.30;;;;;;5115166;28;20220;-57
2023/05/28 11:49:43;;;;;;;5.55;3.85;;;46.20;15.40;;;;;;5115988;28;20204;-57
2023/05/28 11:52:15;;;;;;;4.97;3.95;;;46.40;15.70;;;;;;5116897;28;20603;-57
2023/05/28 11:54:44;;;;;;;7.57;4.07;;;46.50;15.30;;;;;;5116534;28;20694;-57
2023/05/28 11:57:12;;;;;;;5.70;4.43;;;46.60;15.00;;;;;;5115582;28;20273;-57
2023/05/28 11:59:38;;;;;;;4.97;3.60;;;46.70;15.00;;;;;;5114958;28;20283;-56
2023/05/28 12:02:12;;;;;;;4.43;3.78;;;46.80;14.60;;;;;;5114834;28;20208;-56
2023/05/28 12:04:39;;;;;;;4.03;3.60;;;46.70;14.80;;;;;;5114788;28;20196;-57
2023/05/28 12:07:06;;;;;;;6.45;4.22;;;46.80;14.90;;;;;;5114682;28;20272;-57
2023/05/28 12:09:35;;;;;;;6.10;4.32;;;47.00;14.60;;;;;;5114813;28;20208;-57
2023/05/28 12:12:11;;;;;;;4.72;4.22;;;47.20;14.50;;;;;;5114330;28;20208;-57
2023/05/28 12:14:38;;;;;;;4.18;3.17;;;47.30;14.40;;;;;;5114327;28;20700;-56
2023/05/28 12:17:06;;;;;;;4.18;3.78;;;47.50;14.20;;;;;;5114401;28;20716;-57
2023/05/28 12:19:34;;;;;;;7.85;3.83;;;47.70;14.50;;;;;;5114597;28;20204;-56
2023/05/28 12:22:01;;;;;;;4.90;3.85;;;47.80;14.00;;;;;;5114498;28;20200;-56
2023/05/28 12:24:29;;;;;;;4.60;3.53;;;48.00;13.90;;;;;;5114404;28;20207;-57
2023/05/28 12:26:57;;;;;;;4.78;3.53;;;48.20;13.80;;;;;;5114336;28;20216;-56
2023/05/28 12:29:24;;;;;;;5.57;3.85;;;48.40;13.50;;;;;;5114335;28;20253;-56
2023/05/28 12:32:00;;;;;;;4.55;3.60;;;48.60;13.00;;;;;;5114611;28;20204;-56
2023/05/28 12:34:27;;;;;;;5.28;3.42;;;48.60;12.90;;;;;;5114450;28;20200;-56
2023/05/28 12:36:53;;;;;;;3.85;3.45;;;48.10;13.20;;;;;;5114150;28;20227;-56
2023/05/28 12:39:20;;;;;;;5.63;3.60;;;47.70;13.70;;;;;;5113977;28;20697;-56
2023/05/28 12:41:48;;;;;;;4.35;3.70;;;47.00;13.80;;;;;;5114154;28;20200;-56
2023/05/28 12:44:17;;;;;;;5.35;3.90;;;46.50;14.40;;;;;;5114099;28;20296;-56
2023/05/28 12:46:43;;;;;;;6.57;3.75;;;45.90;14.90;;;;;;5113726;28;20599;-56
2023/05/28 12:49:10;;;;;;;3.85;3.45;;;45.40;15.20;;;;;;5113741;28;20715;-56